Hunmanby, United Kingdom
Current Conditions -  °F | °C
As of 1:50 AM on Friday 19 Dec 2014 (Local Time) from EGXV Reporting Station
Broken Clouds Broken Clouds  
Wind Chill: 42°   Ceiling: 1600
Heat Index: 48°   Visibility: 6mi
Dew Point: 45°   Wind: 15mph
Humidity: 87%   Direction: 270°W
Pressure: 29.59"   Gusts: NA
Location:  54.18°N, 0.32°W
Report Text: EGXV 190150Z AUTO 27013KT 9999 BKN016/// BKN120/// 09/07 Q1002 RERA
Loading
Personal Weather Stations






























Interactive Weather Map New forecast layout! Learn more

10-Day Weather Forecast

Advertisements
Track Severe Weather on mobile